TFM - Tactical Decision Aid (Experimental) INFO Settings
ID: Runway Winds: CIG/VIS Threshold: METAR Board: Map:

Katl - Atlanta-Hartsfield Jackson Intl

Updated at: 2347 UTC 02 Sep 2015
Latest TAF at: 2339 UTC 02 Sep 2015

TAF Board

Time2252Z03/00Z03/01Z03/02Z03/03Z03/04Z03/05Z03/06Z03/07Z03/08Z03/09Z03/10Z03/11Z03/12Z
TypeOBSPRVLPRVLPRVLPRVLPRVLPRVLPRVLPRVLPRVLPRVLPRVLPRVLPRVL
VIS10>6>6>6>6>6>6>6>6>6>6>6>6>6
CIG250--------------------------
CoverBKNSCTSCTSCTSCTSCTSCTSCTSCTSCTSCTSCTSCTSCT
FltCatVFRVFRVFRVFRVFRVFRVFRVFRVFRVFRVFRVFRVFRVFR
WX----------------------------
WDirVRB330330330330330330330330330330330330330
WSpd03333333333333
WGst----------------------------
TAF
KATL 022339Z 0300/0406 33003KT P6SM SCT050 SCT200
  FM031500 34005KT P6SM SCT045 BKN200
  FM031800 33006KT P6SM BKN050
  PROB30 0319/0323 -SHRA
  FM040000 31004KT P6SM SCT060


METAR
KATL 022252Z 00000KT 10SM FEW045TCU SCT090 BKN250 31/19 A3001 RMK AO2 SLP152 TCU OHD-S T03060189

TAF/METAR Board Legend

Potential Impact
  None Marginal Slight Moderate High
Visibility (sm) > ≤X≤ <
Ceiling (100 ft) > ≤X≤ <
Wind Speed (kt) <10 10≤X<20 20≤X<30 ≥30
Wind Gust (kt) <15 15≤X<25 25≤X<35 ≥35
Weather No Wx Reported VCTS -TS,-FZRA TS,FZRA +TS,+FZRA